Time;durP1;ratioP1;P1;durP2;ratioP2;P2;SDS_P1;SDS_P2;PMS_P1;PMS_P2;Temp;Humidity;BMP_temperature;BMP_pressure;BME280_temperature;BME280_humidity;BME280_pressure;Samples;Min_cycle;Max_cycle;Signal;HPM_P1;HPM_P2
2022/10/11 00:01:20;;;;;;;7.88;3.13;;;;;;;17.44;68.37;101166.94;5027829;28;20505;-46
2022/10/11 00:03:46;;;;;;;3.03;2.50;;;;;;;17.51;68.99;101178.44;5031153;28;20033;-47
2022/10/11 00:06:13;;;;;;;5.13;2.85;;;;;;;17.60;68.31;101174.28;5027783;28;20116;-45
2022/10/11 00:08:39;;;;;;;4.13;2.65;;;;;;;17.42;68.64;101167.16;5028971;28;20057;-44
2022/10/11 00:11:06;;;;;;;8.00;3.05;;;;;;;17.07;69.97;101172.75;5031278;28;20021;-43
2022/10/11 00:13:33;;;;;;;3.75;2.88;;;;;;;16.64;70.99;101167.78;5032447;28;20044;-46
2022/10/11 00:15:59;;;;;;;3.63;2.63;;;;;;;16.56;72.24;101171.69;5031067;28;20064;-44
2022/10/11 00:18:25;;;;;;;5.85;2.72;;;;;;;16.80;71.20;101163.56;5026488;28;20390;-44
2022/10/11 00:21:03;;;;;;;7.82;3.10;;;;;;;16.57;71.76;101164.41;5016936;28;20029;-47
2022/10/11 00:23:30;;;;;;;5.93;3.03;;;;;;;16.56;72.18;101154.66;5021779;28;20030;-45
2022/10/11 00:25:58;;;;;;;5.40;3.67;;;;;;;16.51;72.46;101163.47;5023085;28;20037;-43
2022/10/11 00:28:24;;;;;;;6.75;3.20;;;;;;;16.42;73.15;101162.19;5021774;28;20033;-45
2022/10/11 00:30:50;;;;;;;6.38;4.00;;;;;;;16.39;73.13;101162.66;5015550;28;20049;-47
2022/10/11 00:33:17;;;;;;;5.70;3.67;;;;;;;16.25;73.62;101161.25;5013267;28;20386;-49
2022/10/11 00:35:43;;;;;;;7.53;3.78;;;;;;;16.23;74.00;101153.41;5027416;28;20097;-48
2022/10/11 00:38:09;;;;;;;5.50;3.95;;;;;;;16.19;73.98;101162.19;5029808;28;20032;-47
2022/10/11 00:40:36;;;;;;;7.72;4.78;;;;;;;16.32;74.21;101164.66;5030620;28;20390;-43
2022/10/11 00:43:02;;;;;;;11.70;4.97;;;;;;;16.17;74.64;101164.31;5025811;28;20176;-46
2022/10/11 00:45:31;;;;;;;8.18;4.95;;;;;;;16.06;74.91;101164.09;5031265;28;20117;-42
2022/10/11 00:48:15;;;;;;;7.75;4.97;;;;;;;15.99;75.31;101162.53;5026495;28;20029;-43
2022/10/11 00:50:41;;;;;;;7.25;4.50;;;;;;;15.82;76.03;101163.25;5018081;28;20038;-42
2022/10/11 00:53:10;;;;;;;7.28;4.68;;;;;;;15.71;76.52;101155.09;5029993;28;20064;-43
2022/10/11 00:55:48;;;;;;;11.80;5.80;;;;;;;15.75;76.45;101153.59;5054856;28;20440;-44
2022/10/11 00:58:15;;;;;;;11.30;5.65;;;;;;;15.77;76.52;101154.22;5056251;28;20052;-43
2022/10/11 01:00:42;;;;;;;10.40;5.75;;;;;;;15.58;77.35;101150.72;5055936;28;20029;-44
2022/10/11 01:03:08;;;;;;;13.38;6.10;;;;;;;15.61;77.53;101154.84;5054478;28;20440;-43
2022/10/11 01:05:38;;;;;;;11.32;6.40;;;;;;;15.66;77.28;101163.94;5054122;28;20109;-43
2022/10/11 01:08:06;;;;;;;10.57;6.30;;;;;;;15.43;77.78;101161.13;5054133;28;20062;-45
2022/10/11 01:10:32;;;;;;;10.80;6.13;;;;;;;15.44;77.82;101160.91;5050871;28;20120;-44
2022/10/11 01:13:19;;;;;;;16.85;6.53;;;;;;;15.36;78.27;101155.81;5054914;28;20025;-43
2022/10/11 01:15:54;;;;;;;11.45;6.57;;;;;;;15.34;78.46;101154.41;5053755;28;20107;-44
2022/10/11 01:18:45;;;;;;;13.95;6.70;;;;;;;15.15;79.23;101151.75;5054883;28;20033;-46
2022/10/11 01:21:32;;;;;;;14.07;6.53;;;;;;;15.12;79.39;101154.94;5054638;28;20036;-43
2022/10/11 01:24:10;;;;;;;11.75;6.88;;;;;;;14.85;80.86;101156.31;5054822;28;20036;-43
2022/10/11 01:27:08;;;;;;;11.20;6.65;;;;;;;14.87;81.03;101160.41;5054407;28;20087;-43
2022/10/11 01:30:03;;;;;;;12.82;7.13;;;;;;;14.89;80.88;101158.34;5034292;28;20075;-47
2022/10/11 01:32:44;;;;;;;11.35;7.07;;;;;;;14.62;82.37;101151.63;5045085;28;20041;-44
2022/10/11 01:35:14;;;;;;;12.10;6.75;;;;;;;14.57;82.84;101149.59;5052348;28;20025;-44
2022/10/11 01:37:45;;;;;;;14.75;7.32;;;;;;;14.52;82.80;101157.53;5024284;28;20028;-48
2022/10/11 01:40:26;;;;;;;17.63;6.90;;;;;;;14.56;82.86;101158.72;5032423;28;20434;-43
2022/10/11 01:42:54;;;;;;;15.93;8.68;;;;;;;14.62;82.86;101146.25;5025381;28;20086;-43
2022/10/11 01:45:21;;;;;;;15.63;7.22;;;;;;;14.59;83.21;101155.56;5033799;28;20022;-45
2022/10/11 01:47:59;;;;;;;12.18;6.97;;;;;;;14.58;82.89;101158.50;5034352;28;20025;-44
2022/10/11 01:50:45;;;;;;;15.43;7.75;;;;;;;14.56;83.33;101158.72;5027971;28;20366;-44
2022/10/11 01:53:30;;;;;;;13.70;7.93;;;;;;;14.52;83.90;101162.91;5014469;28;20037;-44
2022/10/11 01:56:04;;;;;;;16.13;7.68;;;;;;;14.54;83.37;101160.81;5026192;28;20072;-46
2022/10/11 01:59:03;;;;;;;13.50;6.90;;;;;;;14.53;83.25;101159.16;5022430;28;20021;-45
2022/10/11 02:01:47;;;;;;;9.93;7.45;;;;;;;14.64;82.17;101166.50;5010240;28;20069;-44
2022/10/11 02:04:28;;;;;;;12.40;7.37;;;;;;;14.43;82.89;101172.28;5026198;28;20115;-44
2022/10/11 02:06:58;;;;;;;17.00;7.53;;;;;;;14.42;83.21;101173.34;5053218;28;20584;-44
2022/10/11 02:09:41;;;;;;;11.38;7.35;;;;;;;14.16;84.44;101179.84;5053935;28;20027;-45
2022/10/11 02:12:11;;;;;;;13.75;7.90;;;;;;;14.28;84.52;101180.75;5040490;28;20478;-43
2022/10/11 02:14:43;;;;;;;13.85;8.30;;;;;;;14.24;84.62;101188.44;5034839;28;20083;-45
2022/10/11 02:17:16;;;;;;;15.77;8.05;;;;;;;14.13;84.98;101196.41;5026481;28;20024;-46
2022/10/11 02:19:51;;;;;;;15.45;7.45;;;;;;;14.22;84.51;101189.72;5032774;28;20029;-47
2022/10/11 02:22:25;;;;;;;13.90;8.30;;;;;;;14.22;84.61;101200.47;5033526;28;20068;-44
2022/10/11 02:24:55;;;;;;;14.02;8.60;;;;;;;14.19;84.79;101200.91;5033505;28;20314;-44
2022/10/11 02:27:24;;;;;;;16.80;8.10;;;;;;;14.34;84.28;101212.16;5033567;28;20104;-43
2022/10/11 02:29:54;;;;;;;14.30;8.50;;;;;;;14.11;85.25;101209.28;5029611;28;20478;-43
2022/10/11 02:32:24;;;;;;;19.15;9.50;;;;;;;14.10;85.59;101213.00;5034702;28;20069;-43
2022/10/11 02:34:54;;;;;;;17.67;8.50;;;;;;;14.22;84.67;101222.03;5027310;28;20076;-43
2022/10/11 02:37:40;;;;;;;14.00;8.35;;;;;;;14.22;84.30;101222.03;5035499;28;20041;-44
2022/10/11 02:40:36;;;;;;;14.90;8.73;;;;;;;14.39;83.83;101223.09;5053043;28;20071;-43
2022/10/11 02:43:09;;;;;;;16.23;9.45;;;;;;;14.21;84.40;101226.59;5044457;28;20056;-44
2022/10/11 02:46:02;;;;;;;15.15;8.52;;;;;;;14.02;85.83;101232.94;5032830;28;20025;-42
2022/10/11 02:48:29;;;;;;;12.98;8.68;;;;;;;14.25;84.70;101233.16;5024669;28;20038;-47
2022/10/11 02:50:56;;;;;;;16.73;8.52;;;;;;;14.28;84.39;101231.91;5018912;28;20033;-43
2022/10/11 02:53:24;;;;;;;16.83;8.70;;;;;;;14.21;85.12;101237.34;5035656;28;20028;-43
2022/10/11 02:55:52;;;;;;;19.42;9.80;;;;;;;14.08;85.35;101233.94;5051196;28;20021;-44
2022/10/11 02:58:19;;;;;;;15.85;8.77;;;;;;;14.24;84.73;101236.91;5052687;28;20074;-44
2022/10/11 03:00:45;;;;;;;16.85;8.57;;;;;;;14.14;85.16;101251.91;5052863;28;20033;-44
2022/10/11 03:03:11;;;;;;;14.60;8.02;;;;;;;14.09;85.83;101252.53;5052479;28;20508;-47
2022/10/11 03:05:40;;;;;;;15.90;8.43;;;;;;;14.16;84.86;101256.03;5050091;28;20025;-44
2022/10/11 03:08:11;;;;;;;14.48;8.35;;;;;;;14.21;84.49;101252.66;5038985;28;20025;-43
2022/10/11 03:10:38;;;;;;;13.27;8.73;;;;;;;14.38;83.61;101247.53;5019638;28;20029;-44
2022/10/11 03:13:05;;;;;;;15.43;8.55;;;;;;;14.25;83.88;101243.94;5032157;28;20033;-44
2022/10/11 03:15:31;;;;;;;17.38;8.88;;;;;;;14.13;84.80;101239.50;5019162;28;20399;-45
2022/10/11 03:17:58;;;;;;;17.10;9.27;;;;;;;14.01;85.40;101242.06;5032115;28;20025;-44
2022/10/11 03:20:24;;;;;;;15.90;10.02;;;;;;;13.95;85.28;101249.16;5037188;28;20071;-46
2022/10/11 03:22:50;;;;;;;13.73;9.15;;;;;;;13.83;86.46;101250.06;5013656;28;20108;-43
2022/10/11 03:25:17;;;;;;;13.45;9.32;;;;;;;13.95;85.52;101241.06;5021074;28;20507;-43
2022/10/11 03:27:43;;;;;;;16.80;9.65;;;;;;;13.94;85.32;101242.13;5020461;28;20439;-43
2022/10/11 03:30:10;;;;;;;17.25;10.02;;;;;;;13.92;85.90;101244.19;5034128;28;20037;-44
2022/10/11 03:32:36;;;;;;;14.90;9.02;;;;;;;13.78;86.78;101241.81;5028493;28;20485;-45
2022/10/11 03:35:03;;;;;;;18.67;9.65;;;;;;;13.95;86.04;101238.38;5013796;28;20399;-43
2022/10/11 03:37:29;;;;;;;17.48;11.02;;;;;;;13.97;85.54;101247.06;5012346;28;20097;-44
2022/10/11 03:39:56;;;;;;;16.92;10.07;;;;;;;13.85;86.18;101254.19;5024817;28;20045;-45
2022/10/11 03:42:22;;;;;;;19.98;10.55;;;;;;;13.94;86.12;101252.88;5031227;28;20061;-44
2022/10/11 03:44:50;;;;;;;17.88;10.82;;;;;;;13.90;86.03;101243.59;5030752;28;20048;-43
2022/10/11 03:47:17;;;;;;;14.32;9.05;;;;;;;13.93;85.95;101245.84;5031074;28;20033;-43
2022/10/11 03:49:43;;;;;;;19.17;10.40;;;;;;;13.84;86.63;101251.72;5031590;28;20461;-45
2022/10/11 03:52:10;;;;;;;12.98;9.38;;;;;;;13.80;86.66;101251.31;5030440;28;20030;-44
2022/10/11 03:54:36;;;;;;;17.40;9.35;;;;;;;13.82;86.47;101256.47;5030195;28;20098;-44
2022/10/11 03:57:02;;;;;;;17.02;9.20;;;;;;;13.92;85.83;101254.94;5030442;28;20436;-43
2022/10/11 03:59:29;;;;;;;20.00;10.18;;;;;;;13.97;85.80;101248.91;5031687;28;20029;-47
2022/10/11 04:01:55;;;;;;;18.15;10.65;;;;;;;13.90;86.01;101250.84;5030553;28;20032;-45
2022/10/11 04:04:21;;;;;;;17.50;9.90;;;;;;;13.95;85.93;101254.53;5032697;28;20083;-43
2022/10/11 04:06:48;;;;;;;23.17;9.38;;;;;;;13.89;85.71;101251.91;5030561;28;20577;-44
2022/10/11 04:09:14;;;;;;;15.70;9.95;;;;;;;13.90;85.81;101251.66;5031322;28;20112;-43
2022/10/11 04:11:40;;;;;;;15.93;10.27;;;;;;;13.93;85.58;101245.84;5030357;28;20056;-42
2022/10/11 04:14:06;;;;;;;18.95;10.50;;;;;;;13.85;85.94;101254.19;5031563;28;20100;-43
2022/10/11 04:16:34;;;;;;;15.00;9.38;;;;;;;13.72;86.93;101256.97;5030528;28;20104;-43
2022/10/11 04:19:00;;;;;;;18.15;10.23;;;;;;;13.88;86.50;101261.84;5030121;28;20029;-43
2022/10/11 04:21:26;;;;;;;17.70;9.85;;;;;;;13.78;86.61;101261.47;5010295;28;20394;-44
2022/10/11 04:23:53;;;;;;;16.50;10.57;;;;;;;13.81;86.28;101261.03;5030860;28;20140;-43
2022/10/11 04:26:19;;;;;;;17.75;11.27;;;;;;;13.82;86.05;101268.06;5029231;28;20029;-43
2022/10/11 04:28:46;;;;;;;15.63;9.70;;;;;;;13.74;86.13;101257.56;5033508;28;20141;-44
2022/10/11 04:31:12;;;;;;;17.02;10.30;;;;;;;13.96;85.21;101272.31;5034528;28;20050;-43
2022/10/11 04:33:38;;;;;;;15.90;10.02;;;;;;;13.97;85.05;101265.91;5033999;28;20041;-45
2022/10/11 04:36:04;;;;;;;16.35;10.35;;;;;;;14.03;84.65;101264.19;5035128;28;20025;-45
2022/10/11 04:38:31;;;;;;;14.73;10.48;;;;;;;13.98;84.82;101259.47;5029007;28;20029;-44
2022/10/11 04:41:06;;;;;;;16.23;11.10;;;;;;;13.93;84.71;101259.28;5035292;28;20033;-43
2022/10/11 04:43:32;;;;;;;16.55;10.63;;;;;;;13.91;85.02;101268.63;5033988;28;20044;-47
2022/10/11 04:45:58;;;;;;;16.08;10.20;;;;;;;13.89;84.95;101271.56;5033723;28;20037;-43
2022/10/11 04:48:25;;;;;;;14.95;10.43;;;;;;;13.94;84.90;101263.66;5034691;28;20068;-44
2022/10/11 04:50:51;;;;;;;15.60;10.63;;;;;;;13.97;84.52;101273.97;5035523;28;20351;-43
2022/10/11 04:53:17;;;;;;;18.25;9.65;;;;;;;13.97;84.38;101283.91;5034165;28;20030;-42
2022/10/11 04:55:43;;;;;;;10.48;8.20;;;;;;;13.98;84.26;101278.31;5044966;28;20123;-43
2022/10/11 04:58:09;;;;;;;16.83;8.85;;;;;;;13.94;84.44;101279.81;5036498;28;20025;-43
2022/10/11 05:00:35;;;;;;;14.63;8.35;;;;;;;14.08;83.42;101269.75;5033698;28;20044;-44
2022/10/11 05:03:02;;;;;;;11.35;8.63;;;;;;;14.00;83.16;101261.97;5034578;28;20026;-45
2022/10/11 05:05:28;;;;;;;13.57;8.20;;;;;;;14.06;82.63;101258.38;5033477;28;20042;-43
2022/10/11 05:07:54;;;;;;;12.05;7.78;;;;;;;13.88;83.70;101264.53;5034605;28;20021;-42
2022/10/11 05:10:20;;;;;;;16.67;9.20;;;;;;;13.96;83.41;101266.13;5033492;28;20112;-43
2022/10/11 05:12:46;;;;;;;14.20;8.55;;;;;;;14.04;83.00;101262.31;5034698;28;20033;-44
2022/10/11 05:15:12;;;;;;;11.05;7.88;;;;;;;14.05;82.80;101269.34;5033910;28;20390;-44
2022/10/11 05:17:39;;;;;;;12.02;8.68;;;;;;;13.95;83.25;101276.06;5033409;28;20026;-44
2022/10/11 05:20:05;;;;;;;12.30;7.40;;;;;;;13.82;84.01;101276.13;5034178;28;20021;-42
2022/10/11 05:22:31;;;;;;;14.32;8.77;;;;;;;13.79;84.60;101273.06;5034635;28;20120;-43
2022/10/11 05:24:58;;;;;;;9.88;7.68;;;;;;;13.91;83.85;101268.63;5033518;28;20029;-43
2022/10/11 05:27:24;;;;;;;17.15;9.32;;;;;;;13.77;83.96;101270.59;5033400;28;20466;-46
2022/10/11 05:29:50;;;;;;;12.50;8.60;;;;;;;13.81;83.91;101269.09;5032611;28;20091;-43
2022/10/11 05:32:16;;;;;;;11.38;8.07;;;;;;;13.80;84.01;101261.25;5033033;28;20401;-42
2022/10/11 05:34:42;;;;;;;13.65;8.48;;;;;;;13.63;85.06;101258.25;5032107;28;20132;-43
2022/10/11 05:37:08;;;;;;;12.55;8.98;;;;;;;13.59;85.50;101271.31;5033140;28;20030;-43
2022/10/11 05:39:35;;;;;;;14.25;9.70;;;;;;;13.57;85.05;101261.81;5034477;28;20456;-42
2022/10/11 05:42:01;;;;;;;14.55;8.85;;;;;;;13.63;84.94;101266.31;5033131;28;20112;-44
2022/10/11 05:44:27;;;;;;;10.98;7.35;;;;;;;13.64;84.59;101265.28;5036118;28;20474;-44
2022/10/11 05:46:53;;;;;;;13.73;7.88;;;;;;;13.69;84.39;101268.97;5037651;28;20036;-43
2022/10/11 05:49:19;;;;;;;13.15;7.72;;;;;;;13.61;84.80;101268.41;5033912;28;20049;-43
2022/10/11 05:51:46;;;;;;;10.40;7.53;;;;;;;13.57;84.78;101268.00;5033937;28;20025;-43
2022/10/11 05:54:12;;;;;;;11.82;7.05;;;;;;;13.59;84.83;101270.47;5033946;28;20408;-44
2022/10/11 05:56:38;;;;;;;8.73;6.75;;;;;;;13.56;84.69;101277.13;5032488;28;20112;-46
2022/10/11 05:59:05;;;;;;;10.10;6.50;;;;;;;13.54;84.72;101268.44;5033782;28;20075;-44
2022/10/11 06:01:31;;;;;;;7.90;6.45;;;;;;;13.65;83.77;101275.81;5032904;28;20061;-43
2022/10/11 06:03:57;;;;;;;6.65;5.25;;;;;;;13.50;84.17;101282.53;5039773;28;20414;-42
2022/10/11 06:06:23;;;;;;;8.68;5.20;;;;;;;13.52;83.84;101272.38;5038856;28;20097;-44
2022/10/11 06:08:49;;;;;;;5.38;4.70;;;;;;;13.37;84.25;101278.03;5012538;28;20610;-44
2022/10/11 06:11:22;;;;;;;6.13;5.03;;;;;;;13.38;84.21;101280.53;5019134;28;20095;-43
2022/10/11 06:13:51;;;;;;;6.55;4.85;;;;;;;13.45;83.91;101275.94;5034311;28;20423;-43
2022/10/11 06:16:17;;;;;;;7.15;5.40;;;;;;;13.45;83.49;101281.31;5026806;28;20042;-43
2022/10/11 06:18:44;;;;;;;6.78;4.82;;;;;;;13.42;83.81;101281.72;5033544;28;20021;-43
2022/10/11 06:21:11;;;;;;;5.38;4.63;;;;;;;13.34;84.31;101278.47;5032344;28;20029;-43
2022/10/11 06:23:38;;;;;;;6.20;4.82;;;;;;;13.49;84.09;101276.31;5033648;28;20029;-43
2022/10/11 06:26:07;;;;;;;5.65;4.35;;;;;;;13.36;84.64;101274.53;5024484;28;20033;-42
2022/10/11 06:28:34;;;;;;;5.78;4.55;;;;;;;13.39;84.61;101273.28;5033212;28;20033;-45
2022/10/11 06:31:03;;;;;;;5.63;4.55;;;;;;;13.32;84.55;101265.22;5031934;28;20049;-43
2022/10/11 06:33:30;;;;;;;7.05;5.28;;;;;;;13.37;84.13;101262.72;5032564;28;20523;-45
2022/10/11 06:36:01;;;;;;;5.88;4.82;;;;;;;13.37;84.58;101278.84;5031698;28;20041;-43
2022/10/11 06:38:27;;;;;;;9.93;5.85;;;;;;;13.37;84.13;101278.03;5033146;28;20026;-42
2022/10/11 06:40:53;;;;;;;5.55;4.68;;;;;;;13.28;84.59;101276.66;5031943;28;20033;-43
2022/10/11 06:43:20;;;;;;;6.28;5.47;;;;;;;13.42;83.75;101289.78;5032954;28;20156;-43
2022/10/11 06:45:46;;;;;;;5.63;4.00;;;;;;;13.29;84.38;101283.66;5030894;28;20033;-42
2022/10/11 06:48:12;;;;;;;4.55;3.67;;;;;;;13.28;84.86;101288.22;5032780;28;20486;-43
2022/10/11 06:50:38;;;;;;;7.65;4.63;;;;;;;13.22;85.07;101291.75;5031543;28;20030;-42
2022/10/11 06:53:08;;;;;;;5.20;4.45;;;;;;;13.33;84.75;101287.59;5034101;28;20116;-44
2022/10/11 06:55:34;;;;;;;7.13;5.28;;;;;;;13.45;84.39;101292.06;5030590;28;21628;-44
2022/10/11 06:58:00;;;;;;;6.97;5.07;;;;;;;13.43;84.25;101291.44;5032591;28;20083;-44
2022/10/11 07:00:26;;;;;;;6.28;4.75;;;;;;;13.37;83.99;101300.38;5031373;28;20033;-42
2022/10/11 07:02:53;;;;;;;6.30;5.10;;;;;;;13.43;84.13;101296.81;5020670;28;20029;-43
2022/10/11 07:05:19;;;;;;;13.32;6.13;;;;;;;13.39;84.38;101295.63;5031314;28;20049;-43
2022/10/11 07:07:45;;;;;;;5.25;4.70;;;;;;;13.39;84.53;101303.69;5032683;28;20021;-44
2022/10/11 07:10:12;;;;;;;4.82;4.13;;;;;;;13.48;84.04;101302.38;5031324;28;20031;-43
2022/10/11 07:12:38;;;;;;;6.25;3.97;;;;;;;13.37;83.60;101304.91;5032018;28;20501;-43
2022/10/11 07:15:04;;;;;;;6.03;4.55;;;;;;;13.34;83.36;101310.75;5043257;28;20036;-45
2022/10/11 07:17:31;;;;;;;6.13;3.85;;;;;;;13.30;83.68;101304.94;5032562;28;20030;-42
2022/10/11 07:19:57;;;;;;;7.43;4.13;;;;;;;13.29;83.76;101303.31;5031691;28;20690;-42
2022/10/11 07:22:23;;;;;;;4.95;3.83;;;;;;;13.37;83.49;101295.00;5032017;28;20025;-44
2022/10/11 07:24:49;;;;;;;5.35;4.00;;;;;;;13.39;82.93;101300.16;5031713;28;20025;-43
2022/10/11 07:27:16;;;;;;;6.93;4.40;;;;;;;13.32;83.48;101288.59;5031033;28;20040;-44
2022/10/11 07:29:42;;;;;;;4.88;4.07;;;;;;;13.52;82.49;101293.91;5031396;28;20034;-43
2022/10/11 07:32:08;;;;;;;7.05;4.28;;;;;;;13.54;82.19;101289.94;5030981;28;20162;-42
2022/10/11 07:34:34;;;;;;;6.93;4.25;;;;;;;13.43;82.08;101283.38;5031330;28;20037;-44
2022/10/11 07:37:00;;;;;;;5.45;4.03;;;;;;;13.48;82.24;101288.13;5031218;28;20048;-44
2022/10/11 07:39:27;;;;;;;6.63;4.63;;;;;;;13.47;82.18;101284.59;5032738;28;20029;-42
2022/10/11 07:41:53;;;;;;;4.60;3.80;;;;;;;13.55;81.45;101288.06;5036461;28;20073;-43
2022/10/11 07:44:19;;;;;;;5.93;4.15;;;;;;;13.43;81.95;101288.75;5030613;28;20547;-43
2022/10/11 07:46:45;;;;;;;4.95;4.00;;;;;;;13.18;82.66;101285.13;5031656;28;20508;-45
2022/10/11 07:49:11;;;;;;;5.10;3.88;;;;;;;13.20;82.84;101283.84;5030770;28;20018;-47
2022/10/11 07:51:38;;;;;;;4.28;3.70;;;;;;;13.32;82.29;101280.53;5030506;28;20083;-42
2022/10/11 07:54:04;;;;;;;4.20;3.65;;;;;;;13.40;82.31;101291.88;5031964;28;20033;-43
2022/10/11 07:56:30;;;;;;;5.63;4.30;;;;;;;13.31;82.20;101298.53;5030322;28;20075;-43
2022/10/11 07:58:59;;;;;;;6.05;4.28;;;;;;;13.40;82.00;101302.63;5031815;28;20155;-43
2022/10/11 08:01:27;;;;;;;6.03;4.30;;;;;;;13.34;82.34;101297.28;5030405;28;20386;-42
2022/10/11 08:03:55;;;;;;;5.50;4.18;;;;;;;13.36;82.41;101296.03;5032620;28;20258;-43
2022/10/11 08:06:24;;;;;;;6.38;4.47;;;;;;;13.38;82.65;101299.34;5030726;28;20044;-42
2022/10/11 08:08:51;;;;;;;4.88;3.95;;;;;;;13.37;82.83;101295.00;5031454;28;20124;-42
2022/10/11 08:11:26;;;;;;;7.10;5.25;;;;;;;13.43;82.58;101291.44;5030664;28;20029;-43
2022/10/11 08:13:53;;;;;;;8.30;5.25;;;;;;;13.35;82.66;101288.19;5031777;28;20378;-43
2022/10/11 08:16:20;;;;;;;7.28;4.45;;;;;;;13.32;83.10;101285.91;5030079;28;20478;-42
2022/10/11 08:18:47;;;;;;;5.75;4.90;;;;;;;13.29;83.02;101286.34;5030194;28;20370;-43
2022/10/11 08:21:18;;;;;;;7.00;5.35;;;;;;;13.20;83.63;101288.41;5030524;28;20040;-42
2022/10/11 08:23:45;;;;;;;7.38;5.03;;;;;;;13.16;83.32;101285.34;5030392;28;20030;-44
2022/10/11 08:26:11;;;;;;;7.47;4.90;;;;;;;13.05;84.20;101279.81;5031148;28;20049;-43
2022/10/11 08:28:38;;;;;;;7.18;4.47;;;;;;;13.17;83.54;101283.47;5038826;28;20028;-43
2022/10/11 08:31:04;;;;;;;8.43;5.30;;;;;;;13.17;83.28;101280.78;5032840;28;20129;-43
2022/10/11 08:33:30;;;;;;;7.55;5.53;;;;;;;13.18;83.32;101283.25;5029856;28;20112;-43
2022/10/11 08:35:57;;;;;;;7.20;5.70;;;;;;;13.05;83.57;101285.19;5031165;28;20723;-43
2022/10/11 08:38:23;;;;;;;10.05;6.53;;;;;;;13.12;83.38;101281.41;5030012;28;20036;-43
2022/10/11 08:40:58;;;;;;;8.82;6.00;;;;;;;13.12;83.37;101291.34;5030171;28;20471;-43
2022/10/11 08:43:45;;;;;;;6.80;5.78;;;;;;;13.18;83.21;101290.50;5031342;28;20034;-42
2022/10/11 08:46:14;;;;;;;7.45;5.25;;;;;;;13.20;82.79;101285.72;5030134;28;20030;-46
2022/10/11 08:48:48;;;;;;;9.13;5.45;;;;;;;13.21;82.92;101290.09;5019612;28;20028;-42
2022/10/11 08:51:41;;;;;;;7.65;5.60;;;;;;;13.22;83.36;101296.31;5027480;28;20422;-42
2022/10/11 08:54:10;;;;;;;8.45;6.20;;;;;;;13.15;83.81;101297.09;5013276;28;20044;-43
2022/10/11 08:56:38;;;;;;;10.48;7.28;;;;;;;13.24;83.99;101286.97;5011179;28;20033;-42
2022/10/11 08:59:10;;;;;;;10.10;6.03;;;;;;;13.29;83.57;101295.25;5014474;28;20022;-42
2022/10/11 09:01:45;;;;;;;8.70;5.57;;;;;;;13.28;83.24;101295.47;5031151;28;20064;-42
2022/10/11 09:04:16;;;;;;;8.23;5.95;;;;;;;13.17;83.91;101291.53;5030210;28;20033;-43
2022/10/11 09:07:13;;;;;;;7.65;5.90;;;;;;;13.23;83.66;101293.41;5030923;28;20390;-43
2022/10/11 09:09:58;;;;;;;7.75;5.85;;;;;;;13.25;83.46;101291.31;5032097;28;20026;-42
2022/10/11 09:12:53;;;;;;;8.27;5.83;;;;;;;13.24;83.60;101295.06;5016900;28;20026;-43
2022/10/11 09:15:35;;;;;;;8.30;6.67;;;;;;;13.14;84.42;101300.00;5025236;28;20029;-44
2022/10/11 09:18:17;;;;;;;8.20;6.47;;;;;;;13.16;84.11;101298.78;5014687;28;20038;-43
2022/10/11 09:20:58;;;;;;;8.40;6.50;;;;;;;13.19;83.87;101306.41;5028445;28;20037;-44
2022/10/11 09:23:49;;;;;;;12.25;7.10;;;;;;;13.17;83.98;101303.13;5025780;28;20061;-44
2022/10/11 09:26:49;;;;;;;11.52;6.85;;;;;;;13.26;83.95;101309.09;5034639;28;20076;-43
2022/10/11 09:29:42;;;;;;;9.27;6.97;;;;;;;13.20;84.04;101307.22;5033598;28;20021;-42
2022/10/11 09:32:22;;;;;;;11.18;7.13;;;;;;;13.22;83.92;101304.38;5033131;28;20041;-42
2022/10/11 09:34:59;;;;;;;12.10;8.23;;;;;;;13.23;84.03;101306.03;5030960;28;20366;-42
2022/10/11 09:37:37;;;;;;;9.20;6.95;;;;;;;13.07;84.62;101302.72;5014304;28;20026;-44
2022/10/11 09:40:03;;;;;;;10.43;7.70;;;;;;;13.05;84.06;101299.44;5022172;28;20037;-43
2022/10/11 09:42:29;;;;;;;9.25;7.55;;;;;;;13.15;84.04;101307.84;5037067;28;20025;-43
2022/10/11 09:44:56;;;;;;;9.88;7.70;;;;;;;13.23;83.67;101296.09;5045137;28;20124;-44
2022/10/11 09:47:26;;;;;;;10.18;7.55;;;;;;;13.25;83.55;101298.56;5032773;28;20029;-43
2022/10/11 09:50:03;;;;;;;10.02;7.05;;;;;;;13.24;83.27;101304.97;5034126;28;20026;-44
2022/10/11 09:52:30;;;;;;;11.07;8.07;;;;;;;13.37;82.95;101295.00;5032593;28;20025;-44
2022/10/11 09:55:01;;;;;;;9.57;7.55;;;;;;;13.39;82.62;101302.88;5033764;28;20033;-44
2022/10/11 09:57:31;;;;;;;13.88;8.07;;;;;;;13.33;83.22;101299.16;5042608;28;20374;-44
2022/10/11 09:59:59;;;;;;;10.07;7.72;;;;;;;13.18;83.78;101294.00;5033889;28;20026;-42
2022/10/11 10:02:25;;;;;;;14.52;7.75;;;;;;;13.31;83.54;101289.63;5022820;28;20109;-43
2022/10/11 10:05:02;;;;;;;9.75;7.30;;;;;;;13.26;84.21;101295.66;5033288;28;20045;-43
2022/10/11 10:07:30;;;;;;;10.63;7.68;;;;;;;13.39;83.73;101300.16;5034527;28;20038;-43
2022/10/11 10:09:57;;;;;;;15.10;9.80;;;;;;;13.36;84.19;101287.97;5049782;28;20029;-43
2022/10/11 10:12:27;;;;;;;13.32;9.93;;;;;;;13.31;83.98;101285.09;5033624;28;20025;-43
2022/10/11 10:15:03;;;;;;;15.45;10.02;;;;;;;13.33;83.95;101288.41;5032290;28;20060;-46
2022/10/11 10:17:29;;;;;;;13.15;9.18;;;;;;;13.37;83.69;101292.31;5033783;28;20401;-43
2022/10/11 10:19:59;;;;;;;13.57;9.18;;;;;;;13.43;83.39;101291.44;5032987;28;20034;-43
2022/10/11 10:22:31;;;;;;;15.60;8.35;;;;;;;13.31;83.50;101286.94;5012861;28;20026;-43
2022/10/11 10:25:01;;;;;;;10.52;8.30;;;;;;;13.41;83.17;101284.66;5023214;28;20044;-42
2022/10/11 10:27:31;;;;;;;15.27;10.23;;;;;;;13.49;82.43;101284.38;5033393;28;20032;-43
2022/10/11 10:30:12;;;;;;;14.48;9.40;;;;;;;13.51;82.49;101284.19;5031052;28;20038;-43
2022/10/11 10:32:48;;;;;;;14.63;9.50;;;;;;;13.60;82.13;101274.81;5032497;28;20396;-43
2022/10/11 10:35:35;;;;;;;14.93;9.95;;;;;;;13.56;82.57;101281.69;5038381;28;20069;-43
2022/10/11 10:38:28;;;;;;;13.43;8.82;;;;;;;13.52;82.91;101288.53;5033059;28;20389;-44
2022/10/11 10:41:08;;;;;;;13.40;8.82;;;;;;;13.46;83.09;101299.09;5031271;28;20111;-43
2022/10/11 10:43:37;;;;;;;16.00;9.60;;;;;;;13.32;83.76;101284.03;5035399;28;20043;-44
2022/10/11 10:46:19;;;;;;;12.55;8.80;;;;;;;13.57;83.00;101286.03;5032189;28;20757;-43
2022/10/11 10:49:10;;;;;;;14.43;9.10;;;;;;;13.37;83.76;101292.31;5031432;28;20061;-42
2022/10/11 10:51:49;;;;;;;14.30;9.13;;;;;;;13.39;83.39;101292.09;5033009;28;20118;-42
2022/10/11 10:54:27;;;;;;;11.98;8.95;;;;;;;13.46;83.17;101287.53;5032814;28;20131;-43
2022/10/11 10:56:59;;;;;;;12.32;7.65;;;;;;;13.37;83.48;101288.78;5032950;28;20441;-44
2022/10/11 10:59:53;;;;;;;14.52;7.60;;;;;;;13.39;83.06;101290.25;5031698;28;20487;-42
2022/10/11 11:03:03;;;;;;;10.60;7.93;;;;;;;13.53;82.51;101292.84;5031838;28;20025;-43
2022/10/11 11:05:59;;;;;;;17.42;9.50;;;;;;;13.46;82.93;101298.28;5030543;28;20045;-43
2022/10/11 11:08:55;;;;;;;14.80;9.65;;;;;;;13.41;83.58;101304.28;5032408;28;20044;-43
2022/10/11 11:11:24;;;;;;;;;;;;;;;13.42;83.53;101303.25;5013361;28;20524;-42
2022/10/11 11:14:03;;;;;;;17.27;9.55;;;;;;;13.51;82.96;101311.91;5015377;28;19952;-45
2022/10/11 11:16:43;;;;;;;14.15;8.88;;;;;;;13.48;83.18;101302.38;5032627;28;20422;-44
2022/10/11 11:19:34;;;;;;;17.65;9.95;;;;;;;13.41;83.44;101306.97;5030991;28;20359;-43
2022/10/11 11:22:25;;;;;;;15.75;9.30;;;;;;;13.35;84.14;101305.13;5032407;28;20073;-43
2022/10/11 11:25:40;;;;;;;13.98;9.45;;;;;;;13.55;83.34;101304.22;5032711;28;20030;-44
2022/10/11 11:28:09;;;;;;;16.58;10.65;;;;;;;13.47;83.04;101300.75;5052274;28;20064;-43
2022/10/11 11:30:58;;;;;;;18.75;11.60;;;;;;;13.38;84.00;101303.88;5033092;28;20025;-43
2022/10/11 11:33:46;;;;;;;17.00;10.55;;;;;;;13.35;83.80;101302.44;5031320;28;20033;-42
2022/10/11 11:36:24;;;;;;;19.35;10.43;;;;;;;13.42;83.42;101297.03;5030676;28;20060;-43
2022/10/11 11:38:59;;;;;;;18.27;10.20;;;;;;;13.40;83.19;101302.63;5026109;28;20386;-44